sensor_id;sensor_type;location;lat;lon;timestamp;P1;durP1;ratioP1;P2;durP2;ratioP2
4268;SDS011;2148;48.554;7.834;2023-06-04T00:00:05;5.67;;;3.57;;
4268;SDS011;2148;48.554;7.834;2023-06-04T00:02:32;5.87;;;3.37;;
4268;SDS011;2148;48.554;7.834;2023-06-04T00:04:57;5.80;;;3.50;;
4268;SDS011;2148;48.554;7.834;2023-06-04T00:07:23;5.03;;;3.23;;
4268;SDS011;2148;48.554;7.834;2023-06-04T00:09:48;3.63;;;3.03;;
4268;SDS011;2148;48.554;7.834;2023-06-04T00:12:13;4.40;;;3.40;;
4268;SDS011;2148;48.554;7.834;2023-06-04T00:14:39;4.00;;;3.17;;
4268;SDS011;2148;48.554;7.834;2023-06-04T00:17:05;3.30;;;3.00;;
4268;SDS011;2148;48.554;7.834;2023-06-04T00:19:30;3.70;;;3.13;;
4268;SDS011;2148;48.554;7.834;2023-06-04T00:21:56;4.93;;;3.50;;
4268;SDS011;2148;48.554;7.834;2023-06-04T00:24:21;4.43;;;2.70;;
4268;SDS011;2148;48.554;7.834;2023-06-04T00:26:47;4.10;;;3.13;;
4268;SDS011;2148;48.554;7.834;2023-06-04T00:29:12;4.60;;;3.37;;
4268;SDS011;2148;48.554;7.834;2023-06-04T00:31:37;3.40;;;3.10;;
4268;SDS011;2148;48.554;7.834;2023-06-04T00:34:03;4.27;;;3.33;;
4268;SDS011;2148;48.554;7.834;2023-06-04T00:36:29;4.07;;;3.17;;
4268;SDS011;2148;48.554;7.834;2023-06-04T00:38:54;3.33;;;3.00;;
4268;SDS011;2148;48.554;7.834;2023-06-04T00:41:20;5.40;;;3.33;;
4268;SDS011;2148;48.554;7.834;2023-06-04T00:43:45;4.80;;;3.07;;
4268;SDS011;2148;48.554;7.834;2023-06-04T00:46:22;3.90;;;2.90;;
4268;SDS011;2148;48.554;7.834;2023-06-04T00:48:48;4.50;;;2.93;;
4268;SDS011;2148;48.554;7.834;2023-06-04T00:51:13;4.90;;;3.60;;
4268;SDS011;2148;48.554;7.834;2023-06-04T00:53:39;5.23;;;3.30;;
4268;SDS011;2148;48.554;7.834;2023-06-04T00:56:04;9.27;;;3.40;;
4268;SDS011;2148;48.554;7.834;2023-06-04T00:58:30;3.17;;;2.90;;
4268;SDS011;2148;48.554;7.834;2023-06-04T01:00:56;3.00;;;2.80;;
4268;SDS011;2148;48.554;7.834;2023-06-04T01:03:23;3.67;;;2.80;;
4268;SDS011;2148;48.554;7.834;2023-06-04T01:06:02;3.67;;;2.33;;
4268;SDS011;2148;48.554;7.834;2023-06-04T01:08:31;3.27;;;2.90;;
4268;SDS011;2148;48.554;7.834;2023-06-04T01:10:57;4.07;;;2.67;;
4268;SDS011;2148;48.554;7.834;2023-06-04T01:13:23;4.33;;;2.93;;
4268;SDS011;2148;48.554;7.834;2023-06-04T01:15:49;3.43;;;2.97;;
4268;SDS011;2148;48.554;7.834;2023-06-04T01:18:15;5.33;;;3.20;;
4268;SDS011;2148;48.554;7.834;2023-06-04T01:21:06;5.47;;;3.27;;
4268;SDS011;2148;48.554;7.834;2023-06-04T01:23:46;3.40;;;2.80;;
4268;SDS011;2148;48.554;7.834;2023-06-04T01:26:23;3.60;;;3.10;;
4268;SDS011;2148;48.554;7.834;2023-06-04T01:28:51;4.27;;;3.17;;
4268;SDS011;2148;48.554;7.834;2023-06-04T01:31:18;4.63;;;2.80;;
4268;SDS011;2148;48.554;7.834;2023-06-04T01:33:47;3.40;;;3.03;;
4268;SDS011;2148;48.554;7.834;2023-06-04T01:36:16;3.90;;;2.90;;
4268;SDS011;2148;48.554;7.834;2023-06-04T01:38:42;5.43;;;2.77;;
4268;SDS011;2148;48.554;7.834;2023-06-04T01:41:07;6.10;;;3.13;;
4268;SDS011;2148;48.554;7.834;2023-06-04T01:43:33;4.77;;;2.90;;
4268;SDS011;2148;48.554;7.834;2023-06-04T01:46:00;3.70;;;2.73;;
4268;SDS011;2148;48.554;7.834;2023-06-04T01:48:26;3.97;;;2.93;;
4268;SDS011;2148;48.554;7.834;2023-06-04T01:50:51;3.23;;;2.63;;
4268;SDS011;2148;48.554;7.834;2023-06-04T01:53:17;5.37;;;2.80;;
4268;SDS011;2148;48.554;7.834;2023-06-04T01:55:42;4.60;;;2.77;;
4268;SDS011;2148;48.554;7.834;2023-06-04T01:58:08;4.67;;;2.80;;
4268;SDS011;2148;48.554;7.834;2023-06-04T02:00:34;4.90;;;3.17;;
4268;SDS011;2148;48.554;7.834;2023-06-04T02:02:59;5.57;;;2.87;;
4268;SDS011;2148;48.554;7.834;2023-06-04T02:05:25;4.20;;;3.10;;
4268;SDS011;2148;48.554;7.834;2023-06-04T02:07:51;5.60;;;3.30;;
4268;SDS011;2148;48.554;7.834;2023-06-04T02:10:17;3.50;;;2.73;;
4268;SDS011;2148;48.554;7.834;2023-06-04T02:12:53;6.67;;;2.73;;
4268;SDS011;2148;48.554;7.834;2023-06-04T02:15:20;5.43;;;3.03;;
4268;SDS011;2148;48.554;7.834;2023-06-04T02:17:47;4.60;;;3.10;;
4268;SDS011;2148;48.554;7.834;2023-06-04T02:20:12;3.97;;;2.93;;
4268;SDS011;2148;48.554;7.834;2023-06-04T02:22:38;5.13;;;3.40;;
4268;SDS011;2148;48.554;7.834;2023-06-04T02:25:03;3.13;;;2.83;;
4268;SDS011;2148;48.554;7.834;2023-06-04T02:27:30;3.50;;;2.60;;
4268;SDS011;2148;48.554;7.834;2023-06-04T02:29:55;3.33;;;2.73;;
4268;SDS011;2148;48.554;7.834;2023-06-04T02:32:20;6.90;;;3.07;;
4268;SDS011;2148;48.554;7.834;2023-06-04T02:34:46;3.90;;;3.17;;
4268;SDS011;2148;48.554;7.834;2023-06-04T02:37:11;3.63;;;2.80;;
4268;SDS011;2148;48.554;7.834;2023-06-04T02:39:37;5.07;;;3.27;;
4268;SDS011;2148;48.554;7.834;2023-06-04T02:42:02;3.67;;;3.17;;
4268;SDS011;2148;48.554;7.834;2023-06-04T02:44:27;5.00;;;3.27;;
4268;SDS011;2148;48.554;7.834;2023-06-04T02:46:55;4.53;;;2.67;;
4268;SDS011;2148;48.554;7.834;2023-06-04T02:49:21;5.07;;;3.00;;
4268;SDS011;2148;48.554;7.834;2023-06-04T02:51:46;3.47;;;2.77;;
4268;SDS011;2148;48.554;7.834;2023-06-04T02:54:11;4.70;;;2.97;;
4268;SDS011;2148;48.554;7.834;2023-06-04T02:56:37;3.70;;;3.40;;
4268;SDS011;2148;48.554;7.834;2023-06-04T02:59:02;5.83;;;2.93;;
4268;SDS011;2148;48.554;7.834;2023-06-04T03:01:28;6.87;;;3.23;;
4268;SDS011;2148;48.554;7.834;2023-06-04T03:03:54;3.30;;;2.50;;
4268;SDS011;2148;48.554;7.834;2023-06-04T03:06:21;3.80;;;2.90;;
4268;SDS011;2148;48.554;7.834;2023-06-04T03:08:47;3.83;;;3.00;;
4268;SDS011;2148;48.554;7.834;2023-06-04T03:11:13;4.20;;;3.00;;
4268;SDS011;2148;48.554;7.834;2023-06-04T03:13:38;3.30;;;3.00;;
4268;SDS011;2148;48.554;7.834;2023-06-04T03:16:04;3.90;;;2.90;;
4268;SDS011;2148;48.554;7.834;2023-06-04T03:18:35;4.13;;;2.90;;
4268;SDS011;2148;48.554;7.834;2023-06-04T03:21:02;4.70;;;2.90;;
4268;SDS011;2148;48.554;7.834;2023-06-04T03:23:28;3.47;;;2.90;;
4268;SDS011;2148;48.554;7.834;2023-06-04T03:25:53;3.60;;;3.10;;
4268;SDS011;2148;48.554;7.834;2023-06-04T03:28:19;3.23;;;2.80;;
4268;SDS011;2148;48.554;7.834;2023-06-04T03:30:45;4.77;;;2.80;;
4268;SDS011;2148;48.554;7.834;2023-06-04T03:33:10;5.83;;;2.70;;
4268;SDS011;2148;48.554;7.834;2023-06-04T03:35:36;3.53;;;2.73;;
4268;SDS011;2148;48.554;7.834;2023-06-04T03:38:01;3.73;;;2.67;;
4268;SDS011;2148;48.554;7.834;2023-06-04T03:40:27;3.10;;;2.70;;
4268;SDS011;2148;48.554;7.834;2023-06-04T03:42:52;4.57;;;2.77;;
4268;SDS011;2148;48.554;7.834;2023-06-04T03:45:17;3.67;;;2.90;;
4268;SDS011;2148;48.554;7.834;2023-06-04T03:47:43;4.63;;;3.23;;
4268;SDS011;2148;48.554;7.834;2023-06-04T03:50:08;4.60;;;2.70;;
4268;SDS011;2148;48.554;7.834;2023-06-04T03:52:34;2.93;;;2.63;;
4268;SDS011;2148;48.554;7.834;2023-06-04T03:55:00;4.13;;;2.97;;
4268;SDS011;2148;48.554;7.834;2023-06-04T03:57:26;5.60;;;3.10;;
4268;SDS011;2148;48.554;7.834;2023-06-04T03:59:52;6.83;;;2.83;;
4268;SDS011;2148;48.554;7.834;2023-06-04T04:02:17;6.90;;;3.37;;
4268;SDS011;2148;48.554;7.834;2023-06-04T04:04:43;3.73;;;3.00;;
4268;SDS011;2148;48.554;7.834;2023-06-04T04:07:09;4.40;;;2.73;;
4268;SDS011;2148;48.554;7.834;2023-06-04T04:09:35;5.03;;;2.70;;
4268;SDS011;2148;48.554;7.834;2023-06-04T04:12:01;4.93;;;2.87;;
4268;SDS011;2148;48.554;7.834;2023-06-04T04:14:26;4.33;;;2.90;;
4268;SDS011;2148;48.554;7.834;2023-06-04T04:16:52;3.13;;;2.70;;
4268;SDS011;2148;48.554;7.834;2023-06-04T04:19:17;3.67;;;2.83;;
4268;SDS011;2148;48.554;7.834;2023-06-04T04:21:42;3.27;;;2.63;;
4268;SDS011;2148;48.554;7.834;2023-06-04T04:24:07;4.80;;;3.10;;
4268;SDS011;2148;48.554;7.834;2023-06-04T04:26:34;6.77;;;3.23;;
4268;SDS011;2148;48.554;7.834;2023-06-04T04:29:00;2.90;;;2.60;;
4268;SDS011;2148;48.554;7.834;2023-06-04T04:31:26;3.60;;;2.77;;
4268;SDS011;2148;48.554;7.834;2023-06-04T04:33:55;3.57;;;2.57;;
4268;SDS011;2148;48.554;7.834;2023-06-04T04:36:21;4.27;;;2.50;;
4268;SDS011;2148;48.554;7.834;2023-06-04T04:38:46;3.77;;;2.90;;
4268;SDS011;2148;48.554;7.834;2023-06-04T04:41:19;3.23;;;2.90;;
4268;SDS011;2148;48.554;7.834;2023-06-04T04:43:47;3.43;;;2.70;;
4268;SDS011;2148;48.554;7.834;2023-06-04T04:46:13;3.83;;;2.60;;
4268;SDS011;2148;48.554;7.834;2023-06-04T04:48:38;3.27;;;2.57;;
4268;SDS011;2148;48.554;7.834;2023-06-04T04:51:05;3.17;;;2.30;;
4268;SDS011;2148;48.554;7.834;2023-06-04T04:53:31;3.33;;;2.30;;
4268;SDS011;2148;48.554;7.834;2023-06-04T04:55:57;3.93;;;2.50;;
4268;SDS011;2148;48.554;7.834;2023-06-04T04:58:22;3.00;;;2.60;;
4268;SDS011;2148;48.554;7.834;2023-06-04T05:00:47;4.70;;;3.20;;
4268;SDS011;2148;48.554;7.834;2023-06-04T05:03:13;3.20;;;2.50;;
4268;SDS011;2148;48.554;7.834;2023-06-04T05:05:38;3.40;;;2.47;;
4268;SDS011;2148;48.554;7.834;2023-06-04T05:08:04;3.00;;;2.40;;
4268;SDS011;2148;48.554;7.834;2023-06-04T05:10:29;4.80;;;2.70;;
4268;SDS011;2148;48.554;7.834;2023-06-04T05:12:58;2.50;;;2.30;;
4268;SDS011;2148;48.554;7.834;2023-06-04T05:15:25;4.47;;;2.63;;
4268;SDS011;2148;48.554;7.834;2023-06-04T05:17:52;4.97;;;2.63;;
4268;SDS011;2148;48.554;7.834;2023-06-04T05:20:17;3.03;;;2.70;;
4268;SDS011;2148;48.554;7.834;2023-06-04T05:22:44;4.97;;;2.77;;
4268;SDS011;2148;48.554;7.834;2023-06-04T05:25:10;4.50;;;2.50;;
4268;SDS011;2148;48.554;7.834;2023-06-04T05:27:36;4.53;;;2.53;;
4268;SDS011;2148;48.554;7.834;2023-06-04T05:30:02;3.27;;;2.30;;
4268;SDS011;2148;48.554;7.834;2023-06-04T05:32:28;5.40;;;2.50;;
4268;SDS011;2148;48.554;7.834;2023-06-04T05:34:54;3.30;;;2.50;;
4268;SDS011;2148;48.554;7.834;2023-06-04T05:37:25;2.50;;;2.20;;
4268;SDS011;2148;48.554;7.834;2023-06-04T05:39:57;2.87;;;2.23;;
4268;SDS011;2148;48.554;7.834;2023-06-04T05:42:23;2.57;;;2.23;;
4268;SDS011;2148;48.554;7.834;2023-06-04T05:44:51;3.73;;;2.43;;
4268;SDS011;2148;48.554;7.834;2023-06-04T05:47:16;6.33;;;2.30;;
4268;SDS011;2148;48.554;7.834;2023-06-04T05:49:43;3.23;;;2.40;;
4268;SDS011;2148;48.554;7.834;2023-06-04T05:52:09;6.00;;;2.73;;
4268;SDS011;2148;48.554;7.834;2023-06-04T05:54:34;5.47;;;2.53;;
4268;SDS011;2148;48.554;7.834;2023-06-04T05:56:59;3.60;;;2.40;;
4268;SDS011;2148;48.554;7.834;2023-06-04T05:59:25;2.60;;;2.37;;
4268;SDS011;2148;48.554;7.834;2023-06-04T06:01:50;3.93;;;2.60;;
4268;SDS011;2148;48.554;7.834;2023-06-04T06:04:15;2.73;;;2.37;;
4268;SDS011;2148;48.554;7.834;2023-06-04T06:06:41;3.00;;;2.60;;
4268;SDS011;2148;48.554;7.834;2023-06-04T06:09:09;2.70;;;2.27;;
4268;SDS011;2148;48.554;7.834;2023-06-04T06:11:35;2.83;;;2.50;;
4268;SDS011;2148;48.554;7.834;2023-06-04T06:14:01;4.30;;;2.50;;
4268;SDS011;2148;48.554;7.834;2023-06-04T06:16:26;5.20;;;3.10;;
4268;SDS011;2148;48.554;7.834;2023-06-04T06:18:52;3.17;;;2.40;;
4268;SDS011;2148;48.554;7.834;2023-06-04T06:21:17;3.20;;;2.87;;
4268;SDS011;2148;48.554;7.834;2023-06-04T06:23:43;3.50;;;2.70;;
4268;SDS011;2148;48.554;7.834;2023-06-04T06:26:08;2.97;;;2.37;;
4268;SDS011;2148;48.554;7.834;2023-06-04T06:28:33;3.07;;;2.73;;
4268;SDS011;2148;48.554;7.834;2023-06-04T06:31:00;4.50;;;2.63;;
4268;SDS011;2148;48.554;7.834;2023-06-04T06:33:26;4.63;;;2.57;;
4268;SDS011;2148;48.554;7.834;2023-06-04T06:35:52;5.17;;;2.80;;
4268;SDS011;2148;48.554;7.834;2023-06-04T06:38:17;4.20;;;2.60;;
4268;SDS011;2148;48.554;7.834;2023-06-04T06:40:42;3.77;;;2.87;;
4268;SDS011;2148;48.554;7.834;2023-06-04T06:43:08;3.93;;;2.93;;
4268;SDS011;2148;48.554;7.834;2023-06-04T06:45:35;3.43;;;2.77;;
4268;SDS011;2148;48.554;7.834;2023-06-04T06:48:00;4.00;;;2.57;;
4268;SDS011;2148;48.554;7.834;2023-06-04T06:50:26;3.07;;;2.77;;
4268;SDS011;2148;48.554;7.834;2023-06-04T06:52:51;5.50;;;2.80;;
4268;SDS011;2148;48.554;7.834;2023-06-04T06:55:16;3.33;;;2.30;;
4268;SDS011;2148;48.554;7.834;2023-06-04T06:57:42;3.20;;;2.80;;
4268;SDS011;2148;48.554;7.834;2023-06-04T07:00:08;4.53;;;2.60;;
4268;SDS011;2148;48.554;7.834;2023-06-04T07:02:34;5.17;;;2.57;;
4268;SDS011;2148;48.554;7.834;2023-06-04T07:04:59;4.23;;;2.77;;
4268;SDS011;2148;48.554;7.834;2023-06-04T07:07:25;4.47;;;3.00;;
4268;SDS011;2148;48.554;7.834;2023-06-04T07:09:50;5.17;;;2.60;;
4268;SDS011;2148;48.554;7.834;2023-06-04T07:12:15;3.90;;;2.60;;
4268;SDS011;2148;48.554;7.834;2023-06-04T07:14:42;4.30;;;2.77;;
4268;SDS011;2148;48.554;7.834;2023-06-04T07:17:07;4.67;;;2.57;;
4268;SDS011;2148;48.554;7.834;2023-06-04T07:19:32;3.37;;;2.80;;
4268;SDS011;2148;48.554;7.834;2023-06-04T07:21:58;4.50;;;2.90;;
4268;SDS011;2148;48.554;7.834;2023-06-04T07:24:23;4.17;;;3.03;;
4268;SDS011;2148;48.554;7.834;2023-06-04T07:26:49;3.27;;;2.90;;
4268;SDS011;2148;48.554;7.834;2023-06-04T07:29:14;3.00;;;2.70;;
4268;SDS011;2148;48.554;7.834;2023-06-04T07:31:40;7.37;;;3.30;;
4268;SDS011;2148;48.554;7.834;2023-06-04T07:34:06;4.37;;;2.90;;
4268;SDS011;2148;48.554;7.834;2023-06-04T07:36:31;3.70;;;2.80;;
4268;SDS011;2148;48.554;7.834;2023-06-04T07:38:57;2.83;;;2.60;;
4268;SDS011;2148;48.554;7.834;2023-06-04T07:41:23;4.60;;;2.70;;
4268;SDS011;2148;48.554;7.834;2023-06-04T07:43:48;4.93;;;3.00;;
4268;SDS011;2148;48.554;7.834;2023-06-04T07:46:14;5.60;;;3.20;;
4268;SDS011;2148;48.554;7.834;2023-06-04T07:48:43;3.13;;;2.70;;
4268;SDS011;2148;48.554;7.834;2023-06-04T07:51:09;4.83;;;3.00;;
4268;SDS011;2148;48.554;7.834;2023-06-04T07:53:36;4.60;;;3.00;;
4268;SDS011;2148;48.554;7.834;2023-06-04T07:56:02;4.23;;;3.07;;
4268;SDS011;2148;48.554;7.834;2023-06-04T07:58:28;3.13;;;2.53;;
4268;SDS011;2148;48.554;7.834;2023-06-04T08:00:53;4.20;;;2.80;;
4268;SDS011;2148;48.554;7.834;2023-06-04T08:03:18;4.73;;;3.03;;
4268;SDS011;2148;48.554;7.834;2023-06-04T08:05:45;2.83;;;2.63;;
4268;SDS011;2148;48.554;7.834;2023-06-04T08:08:10;4.83;;;2.80;;
4268;SDS011;2148;48.554;7.834;2023-06-04T08:10:36;5.73;;;3.20;;
4268;SDS011;2148;48.554;7.834;2023-06-04T08:13:01;5.67;;;3.10;;
4268;SDS011;2148;48.554;7.834;2023-06-04T08:15:27;3.77;;;2.50;;
4268;SDS011;2148;48.554;7.834;2023-06-04T08:17:52;7.37;;;3.07;;
4268;SDS011;2148;48.554;7.834;2023-06-04T08:20:17;3.13;;;2.80;;
4268;SDS011;2148;48.554;7.834;2023-06-04T08:22:43;3.13;;;2.60;;
4268;SDS011;2148;48.554;7.834;2023-06-04T08:25:09;5.83;;;3.20;;
4268;SDS011;2148;48.554;7.834;2023-06-04T08:27:34;3.70;;;2.80;;
4268;SDS011;2148;48.554;7.834;2023-06-04T08:30:00;4.73;;;2.87;;
4268;SDS011;2148;48.554;7.834;2023-06-04T08:32:26;5.10;;;3.30;;
4268;SDS011;2148;48.554;7.834;2023-06-04T08:34:52;6.43;;;3.00;;
4268;SDS011;2148;48.554;7.834;2023-06-04T08:37:17;3.97;;;3.20;;
4268;SDS011;2148;48.554;7.834;2023-06-04T08:39:42;5.77;;;3.20;;
4268;SDS011;2148;48.554;7.834;2023-06-04T08:42:09;3.77;;;3.00;;
4268;SDS011;2148;48.554;7.834;2023-06-04T08:44:41;3.57;;;3.27;;
4268;SDS011;2148;48.554;7.834;2023-06-04T08:47:08;5.83;;;3.10;;
4268;SDS011;2148;48.554;7.834;2023-06-04T08:49:37;4.43;;;2.90;;
4268;SDS011;2148;48.554;7.834;2023-06-04T08:52:06;4.23;;;3.00;;
4268;SDS011;2148;48.554;7.834;2023-06-04T08:54:32;3.43;;;3.00;;
4268;SDS011;2148;48.554;7.834;2023-06-04T08:56:59;5.80;;;3.57;;
4268;SDS011;2148;48.554;7.834;2023-06-04T08:59:25;6.87;;;3.37;;
4268;SDS011;2148;48.554;7.834;2023-06-04T09:01:55;3.63;;;2.77;;
4268;SDS011;2148;48.554;7.834;2023-06-04T09:04:21;6.07;;;3.27;;
4268;SDS011;2148;48.554;7.834;2023-06-04T09:06:47;5.33;;;2.97;;
4268;SDS011;2148;48.554;7.834;2023-06-04T09:09:13;5.70;;;3.10;;
4268;SDS011;2148;48.554;7.834;2023-06-04T09:11:54;4.60;;;2.80;;
4268;SDS011;2148;48.554;7.834;2023-06-04T09:14:20;5.30;;;2.90;;
4268;SDS011;2148;48.554;7.834;2023-06-04T09:16:50;3.30;;;2.90;;
4268;SDS011;2148;48.554;7.834;2023-06-04T09:19:17;5.43;;;3.13;;
4268;SDS011;2148;48.554;7.834;2023-06-04T09:21:49;3.90;;;2.90;;
4268;SDS011;2148;48.554;7.834;2023-06-04T09:24:16;2.77;;;2.57;;
4268;SDS011;2148;48.554;7.834;2023-06-04T09:26:42;3.47;;;3.13;;
4268;SDS011;2148;48.554;7.834;2023-06-04T09:29:07;4.67;;;3.00;;
4268;SDS011;2148;48.554;7.834;2023-06-04T09:31:33;6.63;;;3.00;;
4268;SDS011;2148;48.554;7.834;2023-06-04T09:34:02;3.67;;;3.17;;
4268;SDS011;2148;48.554;7.834;2023-06-04T09:36:34;3.80;;;3.20;;
4268;SDS011;2148;48.554;7.834;2023-06-04T09:39:03;3.97;;;3.00;;
4268;SDS011;2148;48.554;7.834;2023-06-04T09:41:39;5.30;;;2.70;;
4268;SDS011;2148;48.554;7.834;2023-06-04T09:44:05;6.87;;;3.10;;
4268;SDS011;2148;48.554;7.834;2023-06-04T09:46:31;2.97;;;2.67;;
4268;SDS011;2148;48.554;7.834;2023-06-04T09:49:04;5.60;;;2.93;;
4268;SDS011;2148;48.554;7.834;2023-06-04T09:51:30;4.43;;;3.20;;
4268;SDS011;2148;48.554;7.834;2023-06-04T09:53:57;6.80;;;2.97;;
4268;SDS011;2148;48.554;7.834;2023-06-04T09:56:23;3.50;;;3.20;;
4268;SDS011;2148;48.554;7.834;2023-06-04T09:58:49;5.60;;;3.10;;
4268;SDS011;2148;48.554;7.834;2023-06-04T10:01:15;4.17;;;3.13;;
4268;SDS011;2148;48.554;7.834;2023-06-04T10:03:41;2.73;;;2.50;;
4268;SDS011;2148;48.554;7.834;2023-06-04T10:06:07;3.43;;;2.80;;
4268;SDS011;2148;48.554;7.834;2023-06-04T10:08:33;5.10;;;3.20;;
4268;SDS011;2148;48.554;7.834;2023-06-04T10:11:00;4.07;;;3.20;;
4268;SDS011;2148;48.554;7.834;2023-06-04T10:13:27;5.90;;;3.10;;
4268;SDS011;2148;48.554;7.834;2023-06-04T10:15:57;4.00;;;3.60;;
4268;SDS011;2148;48.554;7.834;2023-06-04T10:18:24;5.10;;;3.50;;
4268;SDS011;2148;48.554;7.834;2023-06-04T10:20:50;5.63;;;3.40;;
4268;SDS011;2148;48.554;7.834;2023-06-04T10:23:18;4.40;;;3.30;;
4268;SDS011;2148;48.554;7.834;2023-06-04T10:25:46;5.23;;;3.80;;
4268;SDS011;2148;48.554;7.834;2023-06-04T10:28:14;5.07;;;3.13;;
4268;SDS011;2148;48.554;7.834;2023-06-04T10:30:40;7.50;;;3.10;;
4268;SDS011;2148;48.554;7.834;2023-06-04T10:33:06;3.17;;;2.87;;
4268;SDS011;2148;48.554;7.834;2023-06-04T10:35:34;4.23;;;2.97;;
4268;SDS011;2148;48.554;7.834;2023-06-04T10:38:07;6.93;;;3.10;;
4268;SDS011;2148;48.554;7.834;2023-06-04T10:40:37;4.17;;;2.83;;
4268;SDS011;2148;48.554;7.834;2023-06-04T10:43:10;4.67;;;3.10;;
4268;SDS011;2148;48.554;7.834;2023-06-04T10:45:37;5.53;;;2.90;;
4268;SDS011;2148;48.554;7.834;2023-06-04T10:48:03;4.27;;;2.80;;
4268;SDS011;2148;48.554;7.834;2023-06-04T10:50:29;2.70;;;2.40;;
4268;SDS011;2148;48.554;7.834;2023-06-04T10:52:56;3.47;;;2.40;;
4268;SDS011;2148;48.554;7.834;2023-06-04T10:55:27;2.57;;;2.27;;
4268;SDS011;2148;48.554;7.834;2023-06-04T10:57:54;4.57;;;2.90;;
4268;SDS011;2148;48.554;7.834;2023-06-04T11:00:43;4.17;;;2.70;;
4268;SDS011;2148;48.554;7.834;2023-06-04T11:06:22;2.87;;;2.53;;
4268;SDS011;2148;48.554;7.834;2023-06-04T11:08:48;4.53;;;2.70;;
4268;SDS011;2148;48.554;7.834;2023-06-04T11:12:02;3.90;;;2.70;;
4268;SDS011;2148;48.554;7.834;2023-06-04T11:14:44;3.87;;;2.90;;
4268;SDS011;2148;48.554;7.834;2023-06-04T11:17:36;4.83;;;2.93;;
4268;SDS011;2148;48.554;7.834;2023-06-04T11:20:40;2.90;;;2.57;;
4268;SDS011;2148;48.554;7.834;2023-06-04T11:23:41;4.27;;;2.73;;
4268;SDS011;2148;48.554;7.834;2023-06-04T11:29:37;6.67;;;3.30;;
4268;SDS011;2148;48.554;7.834;2023-06-04T11:32:29;3.90;;;2.90;;
4268;SDS011;2148;48.554;7.834;2023-06-04T11:35:04;4.13;;;2.80;;
4268;SDS011;2148;48.554;7.834;2023-06-04T11:38:09;3.63;;;3.27;;
4268;SDS011;2148;48.554;7.834;2023-06-04T11:40:37;3.77;;;3.00;;
4268;SDS011;2148;48.554;7.834;2023-06-04T11:43:10;4.93;;;3.80;;
4268;SDS011;2148;48.554;7.834;2023-06-04T11:45:51;4.27;;;3.07;;
4268;SDS011;2148;48.554;7.834;2023-06-04T11:48:23;3.77;;;3.47;;
4268;SDS011;2148;48.554;7.834;2023-06-04T11:50:49;5.60;;;3.30;;
4268;SDS011;2148;48.554;7.834;2023-06-04T11:53:17;4.17;;;3.53;;
4268;SDS011;2148;48.554;7.834;2023-06-04T11:55:43;4.83;;;3.30;;
4268;SDS011;2148;48.554;7.834;2023-06-04T11:58:08;4.83;;;3.43;;
4268;SDS011;2148;48.554;7.834;2023-06-04T12:00:37;5.43;;;3.80;;
4268;SDS011;2148;48.554;7.834;2023-06-04T12:03:51;4.43;;;3.30;;
4268;SDS011;2148;48.554;7.834;2023-06-04T12:06:34;3.97;;;2.90;;
4268;SDS011;2148;48.554;7.834;2023-06-04T12:09:04;5.57;;;3.57;;
4268;SDS011;2148;48.554;7.834;2023-06-04T12:11:42;4.13;;;3.47;;
4268;SDS011;2148;48.554;7.834;2023-06-04T12:14:20;3.47;;;3.00;;
4268;SDS011;2148;48.554;7.834;2023-06-04T12:17:12;3.77;;;3.00;;
4268;SDS011;2148;48.554;7.834;2023-06-04T12:19:51;3.93;;;3.43;;
4268;SDS011;2148;48.554;7.834;2023-06-04T12:25:23;7.33;;;3.00;;
4268;SDS011;2148;48.554;7.834;2023-06-04T12:28:16;5.40;;;3.50;;
4268;SDS011;2148;48.554;7.834;2023-06-04T12:30:51;5.03;;;3.03;;
4268;SDS011;2148;48.554;7.834;2023-06-04T12:33:17;5.43;;;3.47;;
4268;SDS011;2148;48.554;7.834;2023-06-04T12:35:43;3.80;;;3.30;;
4268;SDS011;2148;48.554;7.834;2023-06-04T12:38:09;4.30;;;3.07;;
4268;SDS011;2148;48.554;7.834;2023-06-04T12:40:54;3.83;;;3.43;;
4268;SDS011;2148;48.554;7.834;2023-06-04T12:43:22;3.97;;;3.43;;
4268;SDS011;2148;48.554;7.834;2023-06-04T12:46:14;4.40;;;3.20;;
4268;SDS011;2148;48.554;7.834;2023-06-04T12:48:50;3.63;;;3.00;;
4268;SDS011;2148;48.554;7.834;2023-06-04T12:51:22;3.37;;;3.00;;
4268;SDS011;2148;48.554;7.834;2023-06-04T12:53:51;3.80;;;3.10;;
4268;SDS011;2148;48.554;7.834;2023-06-04T12:56:19;3.40;;;3.10;;
4268;SDS011;2148;48.554;7.834;2023-06-04T12:58:51;3.57;;;3.27;;
4268;SDS011;2148;48.554;7.834;2023-06-04T13:01:49;5.43;;;3.40;;
4268;SDS011;2148;48.554;7.834;2023-06-04T13:04:21;3.53;;;3.23;;
4268;SDS011;2148;48.554;7.834;2023-06-04T13:07:26;4.00;;;3.13;;
4268;SDS011;2148;48.554;7.834;2023-06-04T13:10:15;3.60;;;2.90;;
4268;SDS011;2148;48.554;7.834;2023-06-04T13:12:44;5.20;;;2.87;;
4268;SDS011;2148;48.554;7.834;2023-06-04T13:15:15;5.60;;;3.60;;
4268;SDS011;2148;48.554;7.834;2023-06-04T13:17:47;6.07;;;3.20;;
4268;SDS011;2148;48.554;7.834;2023-06-04T13:20:18;4.90;;;3.40;;
4268;SDS011;2148;48.554;7.834;2023-06-04T13:22:53;5.37;;;3.67;;
4268;SDS011;2148;48.554;7.834;2023-06-04T13:31:36;4.77;;;3.60;;
4268;SDS011;2148;48.554;7.834;2023-06-04T13:34:04;4.53;;;3.20;;
4268;SDS011;2148;48.554;7.834;2023-06-04T13:36:30;4.00;;;3.20;;
4268;SDS011;2148;48.554;7.834;2023-06-04T13:39:24;6.33;;;3.77;;
4268;SDS011;2148;48.554;7.834;2023-06-04T13:41:50;3.43;;;3.13;;
4268;SDS011;2148;48.554;7.834;2023-06-04T13:44:44;3.87;;;3.27;;
4268;SDS011;2148;48.554;7.834;2023-06-04T13:47:19;5.17;;;3.40;;
4268;SDS011;2148;48.554;7.834;2023-06-04T13:49:51;3.90;;;3.40;;
4268;SDS011;2148;48.554;7.834;2023-06-04T13:52:48;4.43;;;3.57;;
4268;SDS011;2148;48.554;7.834;2023-06-04T13:55:14;3.47;;;3.03;;
4268;SDS011;2148;48.554;7.834;2023-06-04T13:57:42;5.33;;;3.50;;
4268;SDS011;2148;48.554;7.834;2023-06-04T14:00:08;6.20;;;3.63;;
4268;SDS011;2148;48.554;7.834;2023-06-04T14:02:41;5.43;;;3.47;;
4268;SDS011;2148;48.554;7.834;2023-06-04T14:05:10;4.00;;;3.60;;
4268;SDS011;2148;48.554;7.834;2023-06-04T14:07:47;6.30;;;3.40;;
4268;SDS011;2148;48.554;7.834;2023-06-04T14:10:22;4.23;;;3.00;;
4268;SDS011;2148;48.554;7.834;2023-06-04T14:12:59;4.00;;;3.60;;
4268;SDS011;2148;48.554;7.834;2023-06-04T14:15:46;4.20;;;3.47;;
4268;SDS011;2148;48.554;7.834;2023-06-04T14:18:17;5.67;;;3.43;;
4268;SDS011;2148;48.554;7.834;2023-06-04T14:20:56;3.60;;;3.27;;
4268;SDS011;2148;48.554;7.834;2023-06-04T14:24:10;3.40;;;3.10;;
4268;SDS011;2148;48.554;7.834;2023-06-04T14:26:30;4.70;;;3.20;;
4268;SDS011;2148;48.554;7.834;2023-06-04T14:29:07;4.00;;;3.43;;
4268;SDS011;2148;48.554;7.834;2023-06-04T14:31:47;4.10;;;3.77;;
4268;SDS011;2148;48.554;7.834;2023-06-04T14:37:57;4.17;;;3.10;;
4268;SDS011;2148;48.554;7.834;2023-06-04T14:47:28;5.50;;;4.00;;
4268;SDS011;2148;48.554;7.834;2023-06-04T14:50:30;4.97;;;3.70;;
4268;SDS011;2148;48.554;7.834;2023-06-04T14:53:30;4.40;;;3.40;;
4268;SDS011;2148;48.554;7.834;2023-06-04T14:59:51;3.97;;;3.17;;
4268;SDS011;2148;48.554;7.834;2023-06-04T15:02:22;3.63;;;3.27;;
4268;SDS011;2148;48.554;7.834;2023-06-04T15:05:16;5.00;;;3.40;;
4268;SDS011;2148;48.554;7.834;2023-06-04T15:07:45;4.37;;;3.30;;
4268;SDS011;2148;48.554;7.834;2023-06-04T15:10:27;4.30;;;3.80;;
4268;SDS011;2148;48.554;7.834;2023-06-04T15:16:16;5.07;;;3.60;;
4268;SDS011;2148;48.554;7.834;2023-06-04T15:18:48;5.27;;;3.80;;
4268;SDS011;2148;48.554;7.834;2023-06-04T15:21:24;4.03;;;3.63;;
4268;SDS011;2148;48.554;7.834;2023-06-04T15:24:01;6.17;;;3.50;;
4268;SDS011;2148;48.554;7.834;2023-06-04T15:26:52;6.90;;;3.40;;
4268;SDS011;2148;48.554;7.834;2023-06-04T15:29:26;5.20;;;3.43;;
4268;SDS011;2148;48.554;7.834;2023-06-04T15:31:52;5.23;;;3.33;;
4268;SDS011;2148;48.554;7.834;2023-06-04T15:34:17;4.43;;;3.50;;
4268;SDS011;2148;48.554;7.834;2023-06-04T15:36:43;3.63;;;3.27;;
4268;SDS011;2148;48.554;7.834;2023-06-04T15:39:09;4.63;;;3.30;;
4268;SDS011;2148;48.554;7.834;2023-06-04T15:41:34;4.80;;;3.53;;
4268;SDS011;2148;48.554;7.834;2023-06-04T15:43:59;4.20;;;3.47;;
4268;SDS011;2148;48.554;7.834;2023-06-04T15:46:25;4.50;;;3.87;;
4268;SDS011;2148;48.554;7.834;2023-06-04T15:48:50;4.23;;;3.30;;
4268;SDS011;2148;48.554;7.834;2023-06-04T15:51:16;4.20;;;3.23;;
4268;SDS011;2148;48.554;7.834;2023-06-04T15:53:43;4.43;;;3.20;;
4268;SDS011;2148;48.554;7.834;2023-06-04T15:56:08;4.37;;;3.60;;
4268;SDS011;2148;48.554;7.834;2023-06-04T15:58:34;4.77;;;3.47;;
4268;SDS011;2148;48.554;7.834;2023-06-04T16:00:59;5.10;;;3.60;;